Airfield :
LOGIN :

Register | Disclaimer

   EN    FR    IT 

 










Legend :    VFR   Marginal VFR   IFR   Intensive IFR   Very Intensive IFR
Visi :
Ceiling :
>= 8 km
>= 3000ft
5 to 8 km
1000 to 3000 ft
1500m to 5 km
500 to 1000 ft
800 to 1500m
200 to 500 ft
< 800m
< 200 ft
Symbols :   Thunderstorms  Fog  Heavy snow  Heavy precipitations  Wind > 20 kt
SIGMETs :     Misc.  Thunderstorms  Icing  Turbulence  Mountain Waves  Volcanic Ashes






- Airport Elevation : 1910 ft
- IATA code : RDZ


LFCR - Rodez

CURRENT METAR :
  • 051030Z AUTO VRB05KT CAVOK 24/06 Q1017 NOSIG

EXPIRED METARs :
  • 051000Z AUTO 34005KT 280V060 CAVOK 23/06 Q1017 NOSIG
  • 050930Z AUTO 35005KT 270V040 CAVOK 22/07 Q1017 NOSIG
  • 050900Z AUTO 36005KT 290V060 CAVOK 21/07 Q1017 NOSIG
  • 050830Z AUTO VRB03KT CAVOK 21/07 Q1017 NOSIG

TAF TAF LFCR
Valid from the 05 at 06:00 until the 06 at 06:00 UTC


050500Z 0506/0606 VRB03KT CAVOK



MET'MAP, your aeronautical weather chart ! - Copyright ORBIFLY December 2007 - Disclaimer

ORBIFLY MET'MAP TEAM :

Programming & Development : Alexandra Zaïnal
Concept & original design : Baudouin d'Aumeries
Assistance for programming : Marc-Olivier Méhu
Technical & hardware support : Manuel Goepfert

Contact : metmap@orbifly.com




SOURCES & CREDITS :

   NOAA